Terminal Aerodrome Forecast
Issued by NWS Atlanta, GA

Home | Current Version | Previous Version | Text Only | Print | Product List | Glossary On
Versions: 1 2 3 4 5 6 7 8 9 10 11 12 13 14 15 16 17 18 19 20 21 22 23 24 25 26 27 28 29 30 31
000
FTAK31 PAJN 210258 AAA
TAFAHN
TAF AMD
PAHN 210258Z 2103/2124 11009KT P6SM -RA SCT015 OVC050
      TEMPO 2103/2106 BKN006 OVC050
     FM210600 09007KT 6SM -RA BR OVC015
     FM212100 09007KT P6SM -RA SCT010 OVC025
      AMD LTD TO CLD VIS AND WIND=

USA.gov is the U.S. government's official web portal to all federal, state and local government web resources and services.